sensor_id;sensor_type;location;lat;lon;timestamp;P1;durP1;ratioP1;P2;durP2;ratioP2
57826;SDS011;43656;57.746;11.780;2024-01-16T00:00:30;4.68;;;2.33;;
57826;SDS011;43656;57.746;11.780;2024-01-16T00:02:56;7.40;;;2.83;;
57826;SDS011;43656;57.746;11.780;2024-01-16T00:05:21;6.22;;;2.65;;
57826;SDS011;43656;57.746;11.780;2024-01-16T00:07:46;8.45;;;2.78;;
57826;SDS011;43656;57.746;11.780;2024-01-16T00:10:12;5.43;;;2.30;;
57826;SDS011;43656;57.746;11.780;2024-01-16T00:12:37;3.53;;;1.40;;
57826;SDS011;43656;57.746;11.780;2024-01-16T00:15:05;2.58;;;1.10;;
57826;SDS011;43656;57.746;11.780;2024-01-16T00:17:31;1.75;;;0.90;;
57826;SDS011;43656;57.746;11.780;2024-01-16T00:19:56;2.10;;;0.80;;
57826;SDS011;43656;57.746;11.780;2024-01-16T00:22:25;1.35;;;0.70;;
57826;SDS011;43656;57.746;11.780;2024-01-16T00:24:51;3.22;;;1.13;;
57826;SDS011;43656;57.746;11.780;2024-01-16T00:27:16;3.15;;;0.93;;
57826;SDS011;43656;57.746;11.780;2024-01-16T00:29:42;2.95;;;0.90;;
57826;SDS011;43656;57.746;11.780;2024-01-16T00:32:07;2.20;;;0.90;;
57826;SDS011;43656;57.746;11.780;2024-01-16T00:34:33;4.13;;;1.17;;
57826;SDS011;43656;57.746;11.780;2024-01-16T00:37:00;3.20;;;1.33;;
57826;SDS011;43656;57.746;11.780;2024-01-16T00:39:25;4.88;;;1.30;;
57826;SDS011;43656;57.746;11.780;2024-01-16T00:41:51;6.50;;;1.60;;
57826;SDS011;43656;57.746;11.780;2024-01-16T00:44:16;5.55;;;1.13;;
57826;SDS011;43656;57.746;11.780;2024-01-16T00:46:41;2.33;;;1.00;;
57826;SDS011;43656;57.746;11.780;2024-01-16T00:49:07;2.83;;;1.02;;
57826;SDS011;43656;57.746;11.780;2024-01-16T00:51:32;2.38;;;0.90;;
57826;SDS011;43656;57.746;11.780;2024-01-16T00:53:58;2.60;;;1.10;;
57826;SDS011;43656;57.746;11.780;2024-01-16T00:56:23;3.97;;;0.80;;
57826;SDS011;43656;57.746;11.780;2024-01-16T00:58:52;1.85;;;0.95;;
57826;SDS011;43656;57.746;11.780;2024-01-16T01:01:19;2.08;;;1.10;;
57826;SDS011;43656;57.746;11.780;2024-01-16T01:03:44;2.88;;;1.10;;
57826;SDS011;43656;57.746;11.780;2024-01-16T01:06:10;3.05;;;1.10;;
57826;SDS011;43656;57.746;11.780;2024-01-16T01:08:36;4.70;;;1.48;;
57826;SDS011;43656;57.746;11.780;2024-01-16T01:11:01;2.03;;;1.10;;
57826;SDS011;43656;57.746;11.780;2024-01-16T01:13:28;2.60;;;1.17;;
57826;SDS011;43656;57.746;11.780;2024-01-16T01:15:53;3.22;;;1.20;;
57826;SDS011;43656;57.746;11.780;2024-01-16T01:18:18;3.33;;;1.10;;
57826;SDS011;43656;57.746;11.780;2024-01-16T01:20:44;2.92;;;1.25;;
57826;SDS011;43656;57.746;11.780;2024-01-16T01:23:09;2.85;;;1.10;;
57826;SDS011;43656;57.746;11.780;2024-01-16T01:25:35;2.83;;;1.25;;
57826;SDS011;43656;57.746;11.780;2024-01-16T01:28:00;3.00;;;1.20;;
57826;SDS011;43656;57.746;11.780;2024-01-16T01:30:25;3.22;;;1.13;;
57826;SDS011;43656;57.746;11.780;2024-01-16T01:32:51;2.60;;;1.10;;
57826;SDS011;43656;57.746;11.780;2024-01-16T01:35:16;5.63;;;1.17;;
57826;SDS011;43656;57.746;11.780;2024-01-16T01:37:44;2.88;;;1.10;;
57826;SDS011;43656;57.746;11.780;2024-01-16T01:40:10;3.08;;;1.30;;
57826;SDS011;43656;57.746;11.780;2024-01-16T01:42:37;2.47;;;0.90;;
57826;SDS011;43656;57.746;11.780;2024-01-16T01:45:03;2.13;;;1.02;;
57826;SDS011;43656;57.746;11.780;2024-01-16T01:47:29;2.30;;;0.80;;
57826;SDS011;43656;57.746;11.780;2024-01-16T01:49:56;1.50;;;0.73;;
57826;SDS011;43656;57.746;11.780;2024-01-16T01:52:21;4.72;;;0.80;;
57826;SDS011;43656;57.746;11.780;2024-01-16T01:54:46;2.25;;;0.98;;
57826;SDS011;43656;57.746;11.780;2024-01-16T01:57:12;2.45;;;1.05;;
57826;SDS011;43656;57.746;11.780;2024-01-16T01:59:38;2.00;;;0.80;;
57826;SDS011;43656;57.746;11.780;2024-01-16T02:02:03;2.38;;;0.93;;
57826;SDS011;43656;57.746;11.780;2024-01-16T02:04:30;2.22;;;0.70;;
57826;SDS011;43656;57.746;11.780;2024-01-16T02:06:56;2.17;;;0.93;;
57826;SDS011;43656;57.746;11.780;2024-01-16T02:09:23;3.92;;;1.08;;
57826;SDS011;43656;57.746;11.780;2024-01-16T02:11:48;4.65;;;1.30;;
57826;SDS011;43656;57.746;11.780;2024-01-16T02:14:13;2.63;;;0.98;;
57826;SDS011;43656;57.746;11.780;2024-01-16T02:16:40;1.42;;;0.80;;
57826;SDS011;43656;57.746;11.780;2024-01-16T02:19:06;2.70;;;0.77;;
57826;SDS011;43656;57.746;11.780;2024-01-16T02:21:54;1.67;;;1.00;;
57826;SDS011;43656;57.746;11.780;2024-01-16T02:24:22;1.52;;;0.77;;
57826;SDS011;43656;57.746;11.780;2024-01-16T02:26:48;3.30;;;0.85;;
57826;SDS011;43656;57.746;11.780;2024-01-16T02:29:13;3.40;;;0.73;;
57826;SDS011;43656;57.746;11.780;2024-01-16T02:31:39;1.40;;;0.80;;
57826;SDS011;43656;57.746;11.780;2024-01-16T02:34:04;2.33;;;1.00;;
57826;SDS011;43656;57.746;11.780;2024-01-16T02:36:29;2.45;;;1.00;;
57826;SDS011;43656;57.746;11.780;2024-01-16T02:38:55;2.17;;;1.10;;
57826;SDS011;43656;57.746;11.780;2024-01-16T02:41:21;2.13;;;0.90;;
57826;SDS011;43656;57.746;11.780;2024-01-16T02:43:46;0.85;;;0.52;;
57826;SDS011;43656;57.746;11.780;2024-01-16T02:46:12;3.22;;;0.80;;
57826;SDS011;43656;57.746;11.780;2024-01-16T02:48:38;1.48;;;0.60;;
57826;SDS011;43656;57.746;11.780;2024-01-16T02:51:03;1.00;;;0.60;;
57826;SDS011;43656;57.746;11.780;2024-01-16T02:53:29;3.67;;;0.80;;
57826;SDS011;43656;57.746;11.780;2024-01-16T02:55:55;1.83;;;0.93;;
57826;SDS011;43656;57.746;11.780;2024-01-16T02:58:23;1.15;;;0.52;;
57826;SDS011;43656;57.746;11.780;2024-01-16T03:00:49;4.25;;;0.75;;
57826;SDS011;43656;57.746;11.780;2024-01-16T03:03:14;1.80;;;0.70;;
57826;SDS011;43656;57.746;11.780;2024-01-16T03:05:40;1.20;;;0.55;;
57826;SDS011;43656;57.746;11.780;2024-01-16T03:08:09;1.67;;;0.50;;
57826;SDS011;43656;57.746;11.780;2024-01-16T03:10:35;0.77;;;0.52;;
57826;SDS011;43656;57.746;11.780;2024-01-16T03:13:01;3.55;;;0.63;;
57826;SDS011;43656;57.746;11.780;2024-01-16T03:15:27;1.17;;;0.60;;
57826;SDS011;43656;57.746;11.780;2024-01-16T03:17:53;1.30;;;0.70;;
57826;SDS011;43656;57.746;11.780;2024-01-16T03:20:18;2.10;;;0.80;;
57826;SDS011;43656;57.746;11.780;2024-01-16T03:22:44;2.78;;;0.70;;
57826;SDS011;43656;57.746;11.780;2024-01-16T03:25:09;1.60;;;0.75;;
57826;SDS011;43656;57.746;11.780;2024-01-16T03:27:38;1.85;;;0.85;;
57826;SDS011;43656;57.746;11.780;2024-01-16T03:30:03;2.38;;;1.13;;
57826;SDS011;43656;57.746;11.780;2024-01-16T03:32:29;3.58;;;0.90;;
57826;SDS011;43656;57.746;11.780;2024-01-16T03:34:55;1.27;;;0.60;;
57826;SDS011;43656;57.746;11.780;2024-01-16T03:37:20;2.80;;;1.17;;
57826;SDS011;43656;57.746;11.780;2024-01-16T03:39:46;3.72;;;1.08;;
57826;SDS011;43656;57.746;11.780;2024-01-16T03:42:11;3.85;;;0.85;;
57826;SDS011;43656;57.746;11.780;2024-01-16T03:44:38;3.15;;;0.82;;
57826;SDS011;43656;57.746;11.780;2024-01-16T03:47:05;2.65;;;1.00;;
57826;SDS011;43656;57.746;11.780;2024-01-16T03:49:31;5.07;;;1.08;;
57826;SDS011;43656;57.746;11.780;2024-01-16T03:51:56;1.95;;;1.00;;
57826;SDS011;43656;57.746;11.780;2024-01-16T03:54:21;2.47;;;1.20;;
57826;SDS011;43656;57.746;11.780;2024-01-16T03:56:47;3.45;;;1.27;;
57826;SDS011;43656;57.746;11.780;2024-01-16T03:59:13;4.32;;;1.35;;
57826;SDS011;43656;57.746;11.780;2024-01-16T04:01:38;4.22;;;1.70;;
57826;SDS011;43656;57.746;11.780;2024-01-16T04:04:04;4.85;;;2.10;;
57826;SDS011;43656;57.746;11.780;2024-01-16T04:06:32;5.15;;;2.60;;
57826;SDS011;43656;57.746;11.780;2024-01-16T04:08:57;4.88;;;2.63;;
57826;SDS011;43656;57.746;11.780;2024-01-16T04:11:23;6.65;;;2.60;;
57826;SDS011;43656;57.746;11.780;2024-01-16T04:13:48;6.13;;;2.53;;
57826;SDS011;43656;57.746;11.780;2024-01-16T04:16:15;5.25;;;2.35;;
57826;SDS011;43656;57.746;11.780;2024-01-16T04:18:41;5.03;;;2.22;;
57826;SDS011;43656;57.746;11.780;2024-01-16T04:21:08;5.80;;;2.42;;
57826;SDS011;43656;57.746;11.780;2024-01-16T04:23:34;6.30;;;2.40;;
57826;SDS011;43656;57.746;11.780;2024-01-16T04:25:59;6.55;;;2.10;;
57826;SDS011;43656;57.746;11.780;2024-01-16T04:28:25;5.63;;;1.60;;
57826;SDS011;43656;57.746;11.780;2024-01-16T04:30:50;4.40;;;2.40;;
57826;SDS011;43656;57.746;11.780;2024-01-16T04:33:16;4.18;;;2.05;;
57826;SDS011;43656;57.746;11.780;2024-01-16T04:35:42;8.45;;;2.20;;
57826;SDS011;43656;57.746;11.780;2024-01-16T04:38:07;4.90;;;2.45;;
57826;SDS011;43656;57.746;11.780;2024-01-16T04:40:33;9.90;;;3.03;;
57826;SDS011;43656;57.746;11.780;2024-01-16T04:42:58;7.07;;;3.30;;
57826;SDS011;43656;57.746;11.780;2024-01-16T04:45:24;5.75;;;2.70;;
57826;SDS011;43656;57.746;11.780;2024-01-16T04:47:49;5.55;;;2.85;;
57826;SDS011;43656;57.746;11.780;2024-01-16T04:50:15;6.28;;;2.47;;
57826;SDS011;43656;57.746;11.780;2024-01-16T04:52:40;4.20;;;2.05;;
57826;SDS011;43656;57.746;11.780;2024-01-16T04:55:06;5.07;;;2.80;;
57826;SDS011;43656;57.746;11.780;2024-01-16T04:57:33;5.38;;;2.70;;
57826;SDS011;43656;57.746;11.780;2024-01-16T04:59:59;5.13;;;1.90;;
57826;SDS011;43656;57.746;11.780;2024-01-16T05:02:24;5.60;;;2.20;;
57826;SDS011;43656;57.746;11.780;2024-01-16T05:04:51;5.25;;;2.60;;
57826;SDS011;43656;57.746;11.780;2024-01-16T05:07:19;6.35;;;2.85;;
57826;SDS011;43656;57.746;11.780;2024-01-16T05:09:45;3.03;;;1.92;;
57826;SDS011;43656;57.746;11.780;2024-01-16T05:12:11;4.13;;;2.03;;
57826;SDS011;43656;57.746;11.780;2024-01-16T05:14:37;5.72;;;2.17;;
57826;SDS011;43656;57.746;11.780;2024-01-16T05:17:02;8.82;;;2.60;;
57826;SDS011;43656;57.746;11.780;2024-01-16T05:19:29;4.97;;;2.50;;
57826;SDS011;43656;57.746;11.780;2024-01-16T05:21:54;5.65;;;2.63;;
57826;SDS011;43656;57.746;11.780;2024-01-16T05:24:20;4.50;;;2.42;;
57826;SDS011;43656;57.746;11.780;2024-01-16T05:26:45;4.85;;;2.53;;
57826;SDS011;43656;57.746;11.780;2024-01-16T05:29:11;5.40;;;2.20;;
57826;SDS011;43656;57.746;11.780;2024-01-16T05:31:43;8.05;;;2.88;;
57826;SDS011;43656;57.746;11.780;2024-01-16T05:34:09;5.13;;;2.53;;
57826;SDS011;43656;57.746;11.780;2024-01-16T05:36:34;4.07;;;2.10;;
57826;SDS011;43656;57.746;11.780;2024-01-16T05:39:00;4.35;;;2.17;;
57826;SDS011;43656;57.746;11.780;2024-01-16T05:41:27;5.72;;;2.22;;
57826;SDS011;43656;57.746;11.780;2024-01-16T05:43:52;6.03;;;2.10;;
57826;SDS011;43656;57.746;11.780;2024-01-16T05:46:18;3.97;;;2.38;;
57826;SDS011;43656;57.746;11.780;2024-01-16T05:48:43;10.13;;;3.53;;
57826;SDS011;43656;57.746;11.780;2024-01-16T05:51:09;15.02;;;6.72;;
57826;SDS011;43656;57.746;11.780;2024-01-16T05:53:34;8.88;;;4.55;;
57826;SDS011;43656;57.746;11.780;2024-01-16T05:56:00;12.43;;;5.93;;
57826;SDS011;43656;57.746;11.780;2024-01-16T05:58:25;11.02;;;4.95;;
57826;SDS011;43656;57.746;11.780;2024-01-16T06:00:50;7.18;;;3.60;;
57826;SDS011;43656;57.746;11.780;2024-01-16T06:03:16;10.75;;;3.75;;
57826;SDS011;43656;57.746;11.780;2024-01-16T06:05:42;9.02;;;3.88;;
57826;SDS011;43656;57.746;11.780;2024-01-16T06:08:08;10.55;;;4.75;;
57826;SDS011;43656;57.746;11.780;2024-01-16T06:10:33;12.43;;;5.18;;
57826;SDS011;43656;57.746;11.780;2024-01-16T06:12:58;9.43;;;4.45;;
57826;SDS011;43656;57.746;11.780;2024-01-16T06:15:26;13.80;;;5.30;;
57826;SDS011;43656;57.746;11.780;2024-01-16T06:17:52;18.92;;;5.80;;
57826;SDS011;43656;57.746;11.780;2024-01-16T06:20:17;27.95;;;11.95;;
57826;SDS011;43656;57.746;11.780;2024-01-16T06:22:42;15.35;;;6.05;;
57826;SDS011;43656;57.746;11.780;2024-01-16T06:25:08;12.73;;;6.05;;
57826;SDS011;43656;57.746;11.780;2024-01-16T06:27:33;18.83;;;8.80;;
57826;SDS011;43656;57.746;11.780;2024-01-16T06:29:59;12.13;;;5.32;;
57826;SDS011;43656;57.746;11.780;2024-01-16T06:32:24;9.85;;;4.45;;
57826;SDS011;43656;57.746;11.780;2024-01-16T06:34:49;10.45;;;5.20;;
57826;SDS011;43656;57.746;11.780;2024-01-16T06:37:15;12.25;;;5.40;;
57826;SDS011;43656;57.746;11.780;2024-01-16T06:39:40;17.85;;;6.63;;
57826;SDS011;43656;57.746;11.780;2024-01-16T06:42:06;19.25;;;6.40;;
57826;SDS011;43656;57.746;11.780;2024-01-16T06:44:31;21.85;;;9.73;;
57826;SDS011;43656;57.746;11.780;2024-01-16T06:46:57;22.75;;;8.10;;
57826;SDS011;43656;57.746;11.780;2024-01-16T06:49:22;22.85;;;8.30;;
57826;SDS011;43656;57.746;11.780;2024-01-16T06:51:47;28.95;;;9.23;;
57826;SDS011;43656;57.746;11.780;2024-01-16T06:54:12;17.98;;;6.93;;
57826;SDS011;43656;57.746;11.780;2024-01-16T06:56:38;16.67;;;6.20;;
57826;SDS011;43656;57.746;11.780;2024-01-16T06:59:03;25.83;;;9.40;;
57826;SDS011;43656;57.746;11.780;2024-01-16T07:01:29;16.33;;;7.18;;
57826;SDS011;43656;57.746;11.780;2024-01-16T07:03:54;10.57;;;4.10;;
57826;SDS011;43656;57.746;11.780;2024-01-16T07:06:19;16.20;;;5.22;;
57826;SDS011;43656;57.746;11.780;2024-01-16T07:08:45;20.42;;;5.13;;
57826;SDS011;43656;57.746;11.780;2024-01-16T07:11:10;20.10;;;4.70;;
57826;SDS011;43656;57.746;11.780;2024-01-16T07:13:38;15.95;;;6.15;;
57826;SDS011;43656;57.746;11.780;2024-01-16T07:16:08;11.20;;;5.28;;
57826;SDS011;43656;57.746;11.780;2024-01-16T07:18:35;14.75;;;5.90;;
57826;SDS011;43656;57.746;11.780;2024-01-16T07:21:01;10.90;;;4.38;;
57826;SDS011;43656;57.746;11.780;2024-01-16T07:23:28;17.75;;;4.75;;
57826;SDS011;43656;57.746;11.780;2024-01-16T07:25:53;23.33;;;5.25;;
57826;SDS011;43656;57.746;11.780;2024-01-16T07:28:18;36.17;;;9.93;;
57826;SDS011;43656;57.746;11.780;2024-01-16T07:30:44;58.85;;;18.40;;
57826;SDS011;43656;57.746;11.780;2024-01-16T07:33:09;58.42;;;13.98;;
57826;SDS011;43656;57.746;11.780;2024-01-16T07:35:34;22.17;;;6.25;;
57826;SDS011;43656;57.746;11.780;2024-01-16T07:38:01;12.00;;;4.03;;
57826;SDS011;43656;57.746;11.780;2024-01-16T07:40:26;10.52;;;3.42;;
57826;SDS011;43656;57.746;11.780;2024-01-16T07:42:52;24.65;;;4.43;;
57826;SDS011;43656;57.746;11.780;2024-01-16T07:45:17;15.18;;;3.42;;
57826;SDS011;43656;57.746;11.780;2024-01-16T07:47:42;17.35;;;4.50;;
57826;SDS011;43656;57.746;11.780;2024-01-16T07:50:08;15.98;;;4.93;;
57826;SDS011;43656;57.746;11.780;2024-01-16T07:52:33;25.17;;;4.97;;
57826;SDS011;43656;57.746;11.780;2024-01-16T07:55:00;10.68;;;4.15;;
57826;SDS011;43656;57.746;11.780;2024-01-16T07:57:25;15.32;;;2.83;;
57826;SDS011;43656;57.746;11.780;2024-01-16T07:59:50;17.33;;;4.10;;
57826;SDS011;43656;57.746;11.780;2024-01-16T08:02:16;12.00;;;3.97;;
57826;SDS011;43656;57.746;11.780;2024-01-16T08:04:43;16.55;;;3.83;;
57826;SDS011;43656;57.746;11.780;2024-01-16T08:07:09;18.05;;;3.30;;
57826;SDS011;43656;57.746;11.780;2024-01-16T08:09:34;12.32;;;2.72;;
57826;SDS011;43656;57.746;11.780;2024-01-16T08:12:00;17.48;;;4.55;;
57826;SDS011;43656;57.746;11.780;2024-01-16T08:14:27;12.13;;;2.63;;
57826;SDS011;43656;57.746;11.780;2024-01-16T08:16:54;8.98;;;2.30;;
57826;SDS011;43656;57.746;11.780;2024-01-16T08:19:19;13.57;;;2.90;;
57826;SDS011;43656;57.746;11.780;2024-01-16T08:21:44;19.50;;;2.90;;
57826;SDS011;43656;57.746;11.780;2024-01-16T08:24:10;13.25;;;3.40;;
57826;SDS011;43656;57.746;11.780;2024-01-16T08:26:35;10.93;;;3.03;;
57826;SDS011;43656;57.746;11.780;2024-01-16T08:29:00;14.77;;;3.03;;
57826;SDS011;43656;57.746;11.780;2024-01-16T08:31:25;38.83;;;7.68;;
57826;SDS011;43656;57.746;11.780;2024-01-16T08:33:52;28.08;;;8.00;;
57826;SDS011;43656;57.746;11.780;2024-01-16T08:36:20;20.98;;;6.22;;
57826;SDS011;43656;57.746;11.780;2024-01-16T08:38:46;21.38;;;4.18;;
57826;SDS011;43656;57.746;11.780;2024-01-16T08:41:11;11.43;;;3.00;;
57826;SDS011;43656;57.746;11.780;2024-01-16T08:43:37;13.45;;;3.17;;
57826;SDS011;43656;57.746;11.780;2024-01-16T08:46:02;12.45;;;2.92;;
57826;SDS011;43656;57.746;11.780;2024-01-16T08:48:28;14.98;;;2.88;;
57826;SDS011;43656;57.746;11.780;2024-01-16T08:50:54;15.32;;;2.90;;
57826;SDS011;43656;57.746;11.780;2024-01-16T08:53:19;14.77;;;3.95;;
57826;SDS011;43656;57.746;11.780;2024-01-16T08:55:47;17.90;;;5.60;;
57826;SDS011;43656;57.746;11.780;2024-01-16T08:58:13;12.38;;;3.55;;
57826;SDS011;43656;57.746;11.780;2024-01-16T09:00:38;16.50;;;4.07;;
57826;SDS011;43656;57.746;11.780;2024-01-16T09:03:04;14.60;;;3.17;;
57826;SDS011;43656;57.746;11.780;2024-01-16T09:05:30;18.13;;;4.22;;
57826;SDS011;43656;57.746;11.780;2024-01-16T09:07:56;7.78;;;2.95;;
57826;SDS011;43656;57.746;11.780;2024-01-16T09:10:21;7.57;;;2.10;;
57826;SDS011;43656;57.746;11.780;2024-01-16T09:12:47;19.15;;;4.70;;
57826;SDS011;43656;57.746;11.780;2024-01-16T09:15:13;20.77;;;4.20;;
57826;SDS011;43656;57.746;11.780;2024-01-16T09:17:39;12.07;;;2.40;;
57826;SDS011;43656;57.746;11.780;2024-01-16T09:20:05;8.85;;;2.22;;
57826;SDS011;43656;57.746;11.780;2024-01-16T09:22:31;16.10;;;2.22;;
57826;SDS011;43656;57.746;11.780;2024-01-16T09:24:57;10.65;;;1.55;;
57826;SDS011;43656;57.746;11.780;2024-01-16T09:27:22;12.50;;;1.75;;
57826;SDS011;43656;57.746;11.780;2024-01-16T09:29:48;7.10;;;1.83;;
57826;SDS011;43656;57.746;11.780;2024-01-16T09:32:14;22.08;;;2.35;;
57826;SDS011;43656;57.746;11.780;2024-01-16T09:34:39;14.00;;;2.33;;
57826;SDS011;43656;57.746;11.780;2024-01-16T09:37:06;9.07;;;1.77;;
57826;SDS011;43656;57.746;11.780;2024-01-16T09:39:31;9.95;;;2.00;;
57826;SDS011;43656;57.746;11.780;2024-01-16T09:41:59;4.60;;;1.50;;
57826;SDS011;43656;57.746;11.780;2024-01-16T09:44:28;5.97;;;2.17;;
57826;SDS011;43656;57.746;11.780;2024-01-16T09:46:53;5.50;;;1.45;;
57826;SDS011;43656;57.746;11.780;2024-01-16T09:49:21;10.48;;;2.10;;
57826;SDS011;43656;57.746;11.780;2024-01-16T09:51:47;5.60;;;1.75;;
57826;SDS011;43656;57.746;11.780;2024-01-16T09:54:13;6.40;;;1.73;;
57826;SDS011;43656;57.746;11.780;2024-01-16T09:56:41;13.30;;;1.83;;
57826;SDS011;43656;57.746;11.780;2024-01-16T09:59:09;4.38;;;1.80;;
57826;SDS011;43656;57.746;11.780;2024-01-16T10:01:35;11.70;;;1.95;;
57826;SDS011;43656;57.746;11.780;2024-01-16T10:04:02;5.88;;;1.90;;
57826;SDS011;43656;57.746;11.780;2024-01-16T10:06:28;4.40;;;1.60;;
57826;SDS011;43656;57.746;11.780;2024-01-16T10:08:58;4.53;;;1.40;;
57826;SDS011;43656;57.746;11.780;2024-01-16T10:11:24;8.88;;;1.60;;
57826;SDS011;43656;57.746;11.780;2024-01-16T10:13:49;5.95;;;1.65;;
57826;SDS011;43656;57.746;11.780;2024-01-16T10:16:15;3.65;;;1.40;;
57826;SDS011;43656;57.746;11.780;2024-01-16T10:18:40;3.38;;;1.40;;
57826;SDS011;43656;57.746;11.780;2024-01-16T10:21:09;4.22;;;1.50;;
57826;SDS011;43656;57.746;11.780;2024-01-16T10:23:46;5.72;;;1.55;;
57826;SDS011;43656;57.746;11.780;2024-01-16T10:26:12;5.32;;;2.17;;
57826;SDS011;43656;57.746;11.780;2024-01-16T10:28:38;3.40;;;1.80;;
57826;SDS011;43656;57.746;11.780;2024-01-16T10:31:05;4.20;;;1.67;;
57826;SDS011;43656;57.746;11.780;2024-01-16T10:33:32;3.88;;;1.23;;
57826;SDS011;43656;57.746;11.780;2024-01-16T10:38:41;4.85;;;1.50;;
57826;SDS011;43656;57.746;11.780;2024-01-16T10:41:15;4.65;;;1.48;;
57826;SDS011;43656;57.746;11.780;2024-01-16T10:43:46;3.15;;;1.40;;
57826;SDS011;43656;57.746;11.780;2024-01-16T10:46:16;4.32;;;1.52;;
57826;SDS011;43656;57.746;11.780;2024-01-16T10:48:43;1.73;;;0.95;;
57826;SDS011;43656;57.746;11.780;2024-01-16T10:51:25;2.33;;;1.25;;
57826;SDS011;43656;57.746;11.780;2024-01-16T10:53:52;3.40;;;1.13;;
57826;SDS011;43656;57.746;11.780;2024-01-16T10:56:23;4.20;;;1.00;;
57826;SDS011;43656;57.746;11.780;2024-01-16T10:58:52;3.53;;;1.10;;
57826;SDS011;43656;57.746;11.780;2024-01-16T11:01:42;2.92;;;1.05;;
57826;SDS011;43656;57.746;11.780;2024-01-16T11:04:10;2.90;;;1.30;;
57826;SDS011;43656;57.746;11.780;2024-01-16T11:06:37;2.75;;;1.10;;
57826;SDS011;43656;57.746;11.780;2024-01-16T11:09:03;2.95;;;1.38;;
57826;SDS011;43656;57.746;11.780;2024-01-16T11:11:29;3.55;;;1.17;;
57826;SDS011;43656;57.746;11.780;2024-01-16T11:13:55;4.05;;;1.20;;
57826;SDS011;43656;57.746;11.780;2024-01-16T11:16:22;4.63;;;1.23;;
57826;SDS011;43656;57.746;11.780;2024-01-16T11:18:47;3.22;;;1.30;;
57826;SDS011;43656;57.746;11.780;2024-01-16T11:21:13;3.33;;;1.40;;
57826;SDS011;43656;57.746;11.780;2024-01-16T11:23:40;3.63;;;1.10;;
57826;SDS011;43656;57.746;11.780;2024-01-16T11:28:57;4.15;;;1.38;;
57826;SDS011;43656;57.746;11.780;2024-01-16T11:31:30;2.60;;;1.27;;
57826;SDS011;43656;57.746;11.780;2024-01-16T11:34:14;3.72;;;1.27;;
57826;SDS011;43656;57.746;11.780;2024-01-16T11:36:52;3.00;;;1.35;;
57826;SDS011;43656;57.746;11.780;2024-01-16T11:39:19;2.00;;;1.30;;
57826;SDS011;43656;57.746;11.780;2024-01-16T11:41:50;4.38;;;1.27;;
57826;SDS011;43656;57.746;11.780;2024-01-16T11:47:07;2.65;;;1.00;;
57826;SDS011;43656;57.746;11.780;2024-01-16T11:49:36;4.20;;;1.40;;
57826;SDS011;43656;57.746;11.780;2024-01-16T11:52:01;1.58;;;0.95;;
57826;SDS011;43656;57.746;11.780;2024-01-16T11:54:28;2.17;;;1.15;;
57826;SDS011;43656;57.746;11.780;2024-01-16T11:59:54;1.70;;;1.05;;
57826;SDS011;43656;57.746;11.780;2024-01-16T12:02:34;3.38;;;1.10;;
57826;SDS011;43656;57.746;11.780;2024-01-16T12:05:15;1.50;;;0.93;;
57826;SDS011;43656;57.746;11.780;2024-01-16T12:07:47;1.85;;;0.90;;
57826;SDS011;43656;57.746;11.780;2024-01-16T12:10:19;3.75;;;1.30;;
57826;SDS011;43656;57.746;11.780;2024-01-16T12:12:47;5.53;;;1.20;;
57826;SDS011;43656;57.746;11.780;2024-01-16T12:15:19;3.35;;;1.13;;
57826;SDS011;43656;57.746;11.780;2024-01-16T12:17:53;2.22;;;1.10;;
57826;SDS011;43656;57.746;11.780;2024-01-16T12:20:19;7.05;;;1.30;;
57826;SDS011;43656;57.746;11.780;2024-01-16T12:22:45;4.05;;;1.00;;
57826;SDS011;43656;57.746;11.780;2024-01-16T12:25:10;5.38;;;1.10;;
57826;SDS011;43656;57.746;11.780;2024-01-16T12:27:39;1.45;;;0.90;;
57826;SDS011;43656;57.746;11.780;2024-01-16T12:30:07;4.88;;;1.38;;
57826;SDS011;43656;57.746;11.780;2024-01-16T12:32:33;3.05;;;1.00;;
57826;SDS011;43656;57.746;11.780;2024-01-16T12:34:58;2.83;;;1.00;;
57826;SDS011;43656;57.746;11.780;2024-01-16T12:37:23;6.68;;;3.28;;
57826;SDS011;43656;57.746;11.780;2024-01-16T12:39:49;4.13;;;1.08;;
57826;SDS011;43656;57.746;11.780;2024-01-16T12:42:16;4.68;;;1.77;;
57826;SDS011;43656;57.746;11.780;2024-01-16T12:44:42;8.10;;;1.73;;
57826;SDS011;43656;57.746;11.780;2024-01-16T12:47:08;16.55;;;4.30;;
57826;SDS011;43656;57.746;11.780;2024-01-16T12:49:39;10.60;;;3.35;;
57826;SDS011;43656;57.746;11.780;2024-01-16T12:52:21;13.77;;;3.45;;
57826;SDS011;43656;57.746;11.780;2024-01-16T12:54:48;3.67;;;1.25;;
57826;SDS011;43656;57.746;11.780;2024-01-16T12:57:17;11.88;;;3.00;;
57826;SDS011;43656;57.746;11.780;2024-01-16T12:59:46;4.03;;;1.10;;
57826;SDS011;43656;57.746;11.780;2024-01-16T13:02:20;4.68;;;1.77;;
57826;SDS011;43656;57.746;11.780;2024-01-16T13:04:47;2.72;;;1.08;;
57826;SDS011;43656;57.746;11.780;2024-01-16T13:07:16;2.53;;;0.93;;
57826;SDS011;43656;57.746;11.780;2024-01-16T13:09:43;7.13;;;2.00;;
57826;SDS011;43656;57.746;11.780;2024-01-16T13:12:10;3.42;;;1.17;;
57826;SDS011;43656;57.746;11.780;2024-01-16T13:14:44;1.98;;;1.20;;
57826;SDS011;43656;57.746;11.780;2024-01-16T13:17:09;3.42;;;1.30;;
57826;SDS011;43656;57.746;11.780;2024-01-16T13:19:35;4.80;;;1.20;;
57826;SDS011;43656;57.746;11.780;2024-01-16T13:22:01;2.28;;;1.13;;
57826;SDS011;43656;57.746;11.780;2024-01-16T13:24:27;5.53;;;1.40;;
57826;SDS011;43656;57.746;11.780;2024-01-16T13:26:52;9.60;;;2.08;;
57826;SDS011;43656;57.746;11.780;2024-01-16T13:29:18;6.00;;;4.20;;
57826;SDS011;43656;57.746;11.780;2024-01-16T13:31:44;9.43;;;6.05;;
57826;SDS011;43656;57.746;11.780;2024-01-16T13:34:09;5.40;;;2.00;;
57826;SDS011;43656;57.746;11.780;2024-01-16T13:36:35;3.20;;;1.50;;
57826;SDS011;43656;57.746;11.780;2024-01-16T13:39:01;2.28;;;1.15;;
57826;SDS011;43656;57.746;11.780;2024-01-16T13:41:26;6.18;;;1.67;;
57826;SDS011;43656;57.746;11.780;2024-01-16T13:43:52;5.88;;;2.20;;
57826;SDS011;43656;57.746;11.780;2024-01-16T13:46:17;6.13;;;1.85;;
57826;SDS011;43656;57.746;11.780;2024-01-16T13:48:43;6.25;;;1.50;;
57826;SDS011;43656;57.746;11.780;2024-01-16T13:51:10;3.65;;;1.67;;
57826;SDS011;43656;57.746;11.780;2024-01-16T13:53:35;4.57;;;1.40;;
57826;SDS011;43656;57.746;11.780;2024-01-16T13:56:01;3.40;;;1.35;;
57826;SDS011;43656;57.746;11.780;2024-01-16T13:58:26;4.28;;;1.92;;
57826;SDS011;43656;57.746;11.780;2024-01-16T14:00:51;9.48;;;5.90;;
57826;SDS011;43656;57.746;11.780;2024-01-16T14:03:17;8.55;;;4.30;;
57826;SDS011;43656;57.746;11.780;2024-01-16T14:05:42;9.15;;;4.53;;
57826;SDS011;43656;57.746;11.780;2024-01-16T14:08:08;18.95;;;11.05;;
57826;SDS011;43656;57.746;11.780;2024-01-16T14:10:36;9.65;;;4.15;;
57826;SDS011;43656;57.746;11.780;2024-01-16T14:13:03;9.75;;;4.65;;
57826;SDS011;43656;57.746;11.780;2024-01-16T14:15:29;10.82;;;5.13;;
57826;SDS011;43656;57.746;11.780;2024-01-16T14:17:55;7.65;;;2.60;;
57826;SDS011;43656;57.746;11.780;2024-01-16T14:20:22;3.72;;;2.78;;
57826;SDS011;43656;57.746;11.780;2024-01-16T14:22:49;11.70;;;7.32;;
57826;SDS011;43656;57.746;11.780;2024-01-16T14:25:16;5.53;;;3.50;;
57826;SDS011;43656;57.746;11.780;2024-01-16T14:27:44;3.97;;;2.10;;
57826;SDS011;43656;57.746;11.780;2024-01-16T14:30:12;5.05;;;1.70;;
57826;SDS011;43656;57.746;11.780;2024-01-16T14:32:44;4.95;;;1.50;;
57826;SDS011;43656;57.746;11.780;2024-01-16T14:35:12;3.50;;;1.60;;
57826;SDS011;43656;57.746;11.780;2024-01-16T14:37:39;3.97;;;1.77;;